createdAt,value
2022-08-12T00:00:18.501Z,15.43
2022-08-12T00:06:00.485Z,15.57
2022-08-12T00:11:20.698Z,15.30
2022-08-12T00:16:40.873Z,15.30
2022-08-12T00:22:01.760Z,15.38
2022-08-12T00:27:25.118Z,15.41
2022-08-12T00:32:54.783Z,14.91
2022-08-12T00:38:21.136Z,14.82
2022-08-12T00:43:24.673Z,15.23
2022-08-12T00:48:26.728Z,15.16
2022-08-12T00:53:29.618Z,14.72
2022-08-12T00:58:32.457Z,14.78
2022-08-12T01:03:56.127Z,15.01
2022-08-12T01:09:19.866Z,14.91
2022-08-12T01:14:25.998Z,14.82
2022-08-12T01:19:27.777Z,14.57
2022-08-12T01:24:31.170Z,14.44
2022-08-12T01:29:36.495Z,14.53
2022-08-12T01:34:41.360Z,14.27
2022-08-12T01:40:34.587Z,14.47
2022-08-12T01:45:10.433Z,14.48
2022-08-12T01:50:33.403Z,14.30
2022-08-12T01:55:38.366Z,14.27
2022-08-12T02:00:54.835Z,14.02
2022-08-12T02:06:25.030Z,13.77
2022-08-12T02:11:30.476Z,14.02
2022-08-12T02:17:13.275Z,14.06
2022-08-12T02:22:17.669Z,14.00
2022-08-12T02:27:21.664Z,14.09
2022-08-12T02:32:23.465Z,13.78
2022-08-12T02:37:28.339Z,13.63
2022-08-12T02:42:34.113Z,13.67
2022-08-12T02:48:00.934Z,13.85
2022-08-12T02:53:04.479Z,13.88
2022-08-12T02:58:12.387Z,13.77
2022-08-12T03:03:19.429Z,13.56
2022-08-12T03:08:32.690Z,13.44
2022-08-12T03:13:40.294Z,13.17
2022-08-12T03:18:46.049Z,13.38
2022-08-12T03:23:49.195Z,13.06
2022-08-12T03:28:51.902Z,13.35
2022-08-12T03:34:01.241Z,13.15
2022-08-12T03:39:16.001Z,13.22
2022-08-12T03:44:45.970Z,13.43
2022-08-12T03:50:06.783Z,13.10
2022-08-12T03:55:27.109Z,12.88
2022-08-12T04:00:30.897Z,12.93
2022-08-12T04:05:54.687Z,13.11
2022-08-12T04:11:13.904Z,13.33
2022-08-12T04:16:17.328Z,13.06
2022-08-12T04:21:19.462Z,13.03
2022-08-12T04:26:21.466Z,13.07
2022-08-12T04:31:34.423Z,13.00
2022-08-12T04:36:40.558Z,13.24
2022-08-12T04:41:57.513Z,13.46
2022-08-12T04:47:00.534Z,13.86
2022-08-12T04:52:03.316Z,14.25
2022-08-12T04:57:06.105Z,14.64
2022-08-12T05:02:09.545Z,14.80
2022-08-12T05:07:18.614Z,15.42
2022-08-12T05:12:20.353Z,15.10
2022-08-12T05:17:22.023Z,15.10
2022-08-12T05:22:28.917Z,16.04
2022-08-12T05:27:30.579Z,16.35
2022-08-12T05:32:32.830Z,16.52
2022-08-12T05:37:35.137Z,16.63
2022-08-12T05:42:36.879Z,16.81
2022-08-12T05:47:53.311Z,16.86
2022-08-12T05:52:55.540Z,16.71
2022-08-12T05:57:57.692Z,17.24
2022-08-12T06:03:03.191Z,17.65
2022-08-12T06:08:07.129Z,17.89
2022-08-12T06:13:09.340Z,18.26
2022-08-12T06:18:16.295Z,18.69
2022-08-12T06:23:18.184Z,21.26
2022-08-12T06:28:21.268Z,23.46
2022-08-12T06:33:24.999Z,23.91
2022-08-12T06:38:46.284Z,23.45
2022-08-12T06:44:06.721Z,22.03
2022-08-12T06:49:13.370Z,22.46
2022-08-12T06:54:15.160Z,22.35
2022-08-12T06:59:35.651Z,22.34
2022-08-12T07:04:39.215Z,23.98
2022-08-12T07:10:06.762Z,24.29
2022-08-12T07:15:07.647Z,21.12
2022-08-12T07:20:29.790Z,22.27
2022-08-12T07:25:37.922Z,21.88
2022-08-12T07:30:45.776Z,22.34
2022-08-12T07:35:48.619Z,22.39
2022-08-12T07:40:53.713Z,22.27
2022-08-12T07:45:55.781Z,22.96
2022-08-12T07:50:57.438Z,23.08
2022-08-12T07:55:59.218Z,24.25
2022-08-12T08:01:02.375Z,26.67
2022-08-12T08:06:19.928Z,30.79
2022-08-12T08:11:42.263Z,33.11
2022-08-12T08:16:43.992Z,33.33
2022-08-12T08:21:46.553Z,35.04
2022-08-12T08:26:50.484Z,33.96
2022-08-12T08:31:58.900Z,34.67
2022-08-12T08:37:00.580Z,33.28
2022-08-12T08:42:25.118Z,33.64
2022-08-12T08:47:26.790Z,30.03
2022-08-12T08:52:39.094Z,26.15
2022-08-12T08:57:51.130Z,26.06
2022-08-12T09:02:59.044Z,26.82
2022-08-12T09:08:14.345Z,27.59
2022-08-12T09:14:10.746Z,29.64
2022-08-12T09:18:53.731Z,32.49
2022-08-12T09:24:06.047Z,30.03
2022-08-12T09:29:12.054Z,32.77
2022-08-12T09:34:27.532Z,34.79
2022-08-12T09:40:02.175Z,36.55
2022-08-12T09:46:06.219Z,34.06
2022-08-12T09:50:58.673Z,31.12
2022-08-12T09:56:41.182Z,32.59
2022-08-12T10:01:25.705Z,32.79
2022-08-12T10:06:53.909Z,32.40
2022-08-12T10:12:15.945Z,33.79
2022-08-12T10:17:32.967Z,29.42
2022-08-12T10:22:39.566Z,26.62
2022-08-12T10:28:03.467Z,26.30
2022-08-12T10:33:18.165Z,25.52
2022-08-12T10:38:39.345Z,25.67
2022-08-12T10:43:54.864Z,25.26
2022-08-12T10:49:05.564Z,25.22
2022-08-12T10:54:19.787Z,25.28
2022-08-12T11:00:31.445Z,25.53
2022-08-12T11:04:59.035Z,28.43
2022-08-12T11:10:20.246Z,28.99
2022-08-12T11:16:03.023Z,29.91
2022-08-12T11:20:52.188Z,32.22
2022-08-12T11:25:58.080Z,30.15
2022-08-12T11:31:00.804Z,28.69
2022-08-12T11:36:16.729Z,28.97
2022-08-12T11:41:27.985Z,29.37
2022-08-12T11:46:37.454Z,31.19
2022-08-12T11:51:39.935Z,30.01
2022-08-12T11:56:42.907Z,30.46
2022-08-12T12:02:03.067Z,32.13
2022-08-12T12:07:11.181Z,29.97
2022-08-12T12:12:13.233Z,30.67
2022-08-12T12:17:14.890Z,29.83
2022-08-12T12:22:23.198Z,30.14
2022-08-12T12:27:42.273Z,32.03
2022-08-12T12:32:53.470Z,30.44
2022-08-12T12:38:12.175Z,27.87
2022-08-12T12:43:15.046Z,27.90
2022-08-12T12:48:18.717Z,28.87
2022-08-12T12:54:06.868Z,28.05
2022-08-12T12:58:44.560Z,28.18
2022-08-12T13:03:48.859Z,29.70
2022-08-12T13:08:55.528Z,30.09
2022-08-12T13:14:06.799Z,30.14
2022-08-12T13:19:10.346Z,30.73
2022-08-12T13:24:12.154Z,30.62
2022-08-12T13:29:14.309Z,31.51
2022-08-12T13:34:33.947Z,31.10
2022-08-12T13:39:39.180Z,29.48
2022-08-12T13:44:41.062Z,29.53
2022-08-12T13:49:55.417Z,29.06
2022-08-12T13:54:57.759Z,28.98
2022-08-12T14:00:00.426Z,29.42
2022-08-12T14:05:02.333Z,29.33
2022-08-12T14:10:36.539Z,28.72
2022-08-12T14:15:41.397Z,28.74
2022-08-12T14:20:47.611Z,29.00
2022-08-12T14:25:51.395Z,29.28
2022-08-12T14:31:02.496Z,27.89
2022-08-12T14:36:07.655Z,27.82
2022-08-12T14:41:12.429Z,28.16
2022-08-12T14:46:19.112Z,28.56
2022-08-12T14:52:56.544Z,29.15
2022-08-12T15:02:07.264Z,28.22
2022-08-12T15:07:34.453Z,28.71
2022-08-12T15:12:35.573Z,28.62
2022-08-12T15:17:42.345Z,28.66
2022-08-12T15:22:53.881Z,28.56
2022-08-12T15:28:04.089Z,29.05
2022-08-12T15:33:14.963Z,28.67
2022-08-12T15:38:25.192Z,28.79
2022-08-12T15:44:15.823Z,28.07
2022-08-12T15:48:53.619Z,28.22
2022-08-12T15:54:33.400Z,28.52
2022-08-12T15:59:32.622Z,28.24
2022-08-12T16:04:51.517Z,28.37
2022-08-12T16:10:06.378Z,28.40
2022-08-12T16:15:11.193Z,28.09
2022-08-12T16:20:33.065Z,27.57
2022-08-12T16:26:02.974Z,27.21
2022-08-12T16:31:00.360Z,27.67
2022-08-12T16:36:06.161Z,27.86
2022-08-12T16:41:13.538Z,27.70
2022-08-12T16:46:32.238Z,27.56
2022-08-12T16:51:40.373Z,27.51
2022-08-12T16:56:55.554Z,27.43
2022-08-12T17:02:00.500Z,27.37
2022-08-12T17:07:02.561Z,27.25
2022-08-12T17:12:05.108Z,27.15
2022-08-12T17:17:18.359Z,27.22
2022-08-12T17:22:30.420Z,27.13
2022-08-12T17:27:34.182Z,26.97
2022-08-12T17:32:39.729Z,26.84
2022-08-12T17:37:43.043Z,26.75
2022-08-12T17:42:47.499Z,26.72
2022-08-12T17:48:04.794Z,26.60
2022-08-12T17:53:10.154Z,26.36
2022-08-12T17:58:14.060Z,26.24
2022-08-12T18:04:05.537Z,26.05
2022-08-12T18:08:55.120Z,25.81
2022-08-12T18:13:57.077Z,25.26
2022-08-12T18:19:02.041Z,24.68
2022-08-12T18:24:04.597Z,24.56
2022-08-12T18:29:27.227Z,24.13
2022-08-12T18:34:45.332Z,23.84
2022-08-12T18:40:18.064Z,23.72
2022-08-12T18:45:21.885Z,23.26
2022-08-12T18:50:24.607Z,23.13
2022-08-12T18:55:27.097Z,22.92
2022-08-12T19:00:40.451Z,22.48
2022-08-12T19:05:53.902Z,22.28
2022-08-12T19:11:16.183Z,22.27
2022-08-12T19:16:21.497Z,22.10
2022-08-12T19:21:24.710Z,21.89
2022-08-12T19:26:27.895Z,21.74
2022-08-12T19:31:56.472Z,21.36
2022-08-12T19:37:04.288Z,21.18
2022-08-12T19:42:06.661Z,21.20
2022-08-12T19:47:12.024Z,21.12
2022-08-12T19:52:21.023Z,21.27
2022-08-12T19:57:25.865Z,20.90
2022-08-12T20:02:32.977Z,20.50
2022-08-12T20:07:42.839Z,20.21
2022-08-12T20:13:18.312Z,20.35
2022-08-12T20:18:53.267Z,20.36
2022-08-12T20:24:00.468Z,20.12
2022-08-12T20:29:06.553Z,19.89
2022-08-12T20:34:08.589Z,19.72
2022-08-12T20:39:34.402Z,19.57
2022-08-12T20:44:37.728Z,19.24
2022-08-12T20:49:43.907Z,19.26
2022-08-12T20:54:52.569Z,19.42
2022-08-12T20:59:54.230Z,19.13
2022-08-12T21:05:20.335Z,18.82
2022-08-12T21:10:26.542Z,18.86
2022-08-12T21:15:30.788Z,18.98
2022-08-12T21:20:52.965Z,19.01
2022-08-12T21:25:56.227Z,18.68
2022-08-12T21:32:35.917Z,18.46
2022-08-12T21:36:22.733Z,18.34
2022-08-12T21:41:37.823Z,18.44
2022-08-12T21:46:53.585Z,18.44
2022-08-12T21:51:56.538Z,18.31
2022-08-12T21:56:58.934Z,18.31
2022-08-12T22:02:00.609Z,18.29
2022-08-12T22:07:02.634Z,18.12
2022-08-12T22:12:23.367Z,18.02
2022-08-12T22:17:49.583Z,18.03
2022-08-12T22:22:56.701Z,18.13
2022-08-12T22:28:17.306Z,17.66
2022-08-12T22:33:26.398Z,17.59
2022-08-12T22:38:29.797Z,17.69
2022-08-12T22:44:00.493Z,17.49
2022-08-12T22:49:03.538Z,17.48
2022-08-12T22:54:35.011Z,16.92
2022-08-12T22:59:51.163Z,17.16
2022-08-12T23:04:52.535Z,17.01
2022-08-12T23:09:56.902Z,16.93
2022-08-12T23:14:58.547Z,16.86
2022-08-12T23:20:01.699Z,16.82
2022-08-12T23:25:03.614Z,16.94
2022-08-12T23:30:18.740Z,16.69
2022-08-12T23:35:22.683Z,16.79
2022-08-12T23:40:25.574Z,16.67
2022-08-12T23:45:31.988Z,16.48
2022-08-12T23:50:35.812Z,16.28
2022-08-12T23:55:40.596Z,16.28
